Terminal Aerodrome Forecast
Issued by NWS Corpus Christi, TX

Home | Current Version | Previous Version | Text Only | Print | Product List | Glossary On
Versions: 1 2 3 4 5 6 7 8 9 10 11 12 13 14 15 16
000
FTUS44 KCRP 011738
TAFVCT
TAF
KVCT 011738Z 0118/0218 08003KT P6SM VCTS SCT030CB BKN250
      TEMPO 0120/0122 VRB15G25KT 3SM TSRA BR SCT025CB
     FM012300 13012G16KT P6SM SCT040 BKN250
     FM020300 10005KT P6SM SCT025
     FM020900 VRB03KT P6SM SCT009 BKN020
      TEMPO 0210/0212 5SM BR
     FM021300 09004KT P6SM VCSH BKN025
     FM021600 12007KT P6SM SCT030=

USA.gov is the U.S. government's official web portal to all federal, state and local government web resources and services.